Monday, December 17, 2018, 5:37 AM EST
Back to Local

KMRB, Martinsburg Eastern Wv Reg

Location: Martinsburg, WV, United States Lat: 39.4
Local Time: 5:37 AM EST (10:37 GMT) Lon: -77.983
Time Zone: US/Eastern Elev: 557 ft

Show me the last for .
Show Decoded

2018-12-17 04:53 METAR KMRB 170953Z AUTO 00000KT 10SM CLR 04/01 A2987 RMK AO2 SLP119 T00440006 =
2018-12-17 03:53 METAR KMRB 170853Z AUTO 28009KT 10SM CLR 05/01 A2989 RMK AO2 SLP124 T00500011
                 58001 =
2018-12-17 02:53 METAR KMRB 170753Z AUTO 29011KT 10SM CLR 07/01 A2990 RMK AO2 SLP128 T00670011 =
2018-12-17 01:53 METAR KMRB 170653Z AUTO 30007KT 10SM BKN032 07/02 A2990 RMK AO2 SLP126 T00670022
                 =
2018-12-17 00:53 METAR KMRB 170553Z AUTO 30012KT 10SM OVC034 08/03 A2989 RMK AO2 SLP125 T00780028
                 10078 20050 56007 =
2018-12-17 00:35 METAR KMRB 170535Z AUTO 30013G20KT 10SM BKN030 OVC035 08/03 A2989 RMK AO2
                 T00780033 =
2018-12-16 23:53 METAR KMRB 170453Z AUTO 29009KT 10SM OVC028 07/03 A2990 RMK AO2 SLP126 T00720033
                 400720044 =
2018-12-16 22:53 METAR KMRB 170353Z AUTO 30012G16KT 10SM OVC026 07/03 A2990 RMK AO2 SLP127
                 T00670028 =
2018-12-16 22:04 METAR KMRB 170304Z AUTO 30008KT 10SM OVC027 06/03 A2991 RMK AO2 T00610028 =
2018-12-16 21:53 METAR KMRB 170253Z AUTO 31009KT 10SM OVC030 06/03 A2992 RMK AO2 SLP133 T00610028
                 56006 =
2018-12-16 21:50 METAR KMRB 170250Z AUTO 31009KT 10SM OVC030 06/03 A2992 RMK AO2 =
2018-12-16 20:53 METAR KMRB 170153Z AUTO 33005KT 10SM OVC029 05/03 A2993 RMK AO2 SLP138 T00500033
                 =
2018-12-16 20:43 METAR KMRB 170143Z AUTO 34004KT 10SM OVC029 05/03 A2994 RMK AO2 T00500033 =
2018-12-16 20:26 METAR KMRB 170126Z AUTO 35004KT 10SM OVC030 05/03 A2994 RMK AO2 T00500033 =
2018-12-16 19:53 METAR KMRB 170053Z AUTO 34003KT 10SM FEW022 OVC029 05/03 A2993 RMK AO2 SLP139
                 T00500033 =
2018-12-16 18:53 METAR KMRB 162353Z AUTO 34006KT 10SM OVC024 05/03 A2993 RMK AO2 SLP136 T00500033
                 10050 20044 51012 =
2018-12-16 17:53 METAR KMRB 162253Z AUTO 34006KT 10SM OVC017 05/03 A2991 RMK AO2 SLP132 T00500033
                 =
2018-12-16 16:53 METAR KMRB 162153Z AUTO 31006KT 10SM OVC016 04/04 A2991 RMK AO2 SLP130 T00440039
                 =
2018-12-16 16:12 METAR KMRB 162112Z AUTO 01008KT 10SM OVC016 05/03 A2989 RMK AO2 T00500033 =
2018-12-16 15:53 METAR KMRB 162053Z AUTO 01008KT 10SM BKN011 OVC034 05/04 A2989 RMK AO2 SLP124
                 T00500039 53007 =
2018-12-16 14:53 METAR KMRB 161953Z 36006KT 10SM BKN010 OVC031 05/04 A2988 RMK AO2 SLP120
                 T00500039 =
2018-12-16 13:53 METAR KMRB 161853Z 01008KT 7SM FEW008 BKN011 OVC025 04/04 A2987 RMK AO2 SLP116
                 T00440039 =
2018-12-16 13:40 METAR KMRB 161840Z 01011G16KT 9SM BKN008 BKN012 OVC031 05/04 A2986 RMK AO2
                 T00500039 =
2018-12-16 13:14 METAR KMRB 161814Z 01009KT 3SM BR SCT008 BKN017 OVC023 04/04 A2986 RMK AO2
                 T00440039 =
2018-12-16 13:11 METAR KMRB 161811Z 01010KT 2 1/2SM BR BKN008 BKN015 OVC023 04/04 A2986 RMK AO2
                 T00440044 =
2018-12-16 13:02 METAR KMRB 161802Z 01010KT 2 1/2SM BR SCT009 BKN013 OVC023 04/04 A2986 RMK AO2
                 T00440039 =
2018-12-16 12:53 METAR KMRB 161753Z 01010KT 3SM BR SCT009 BKN013 OVC021 04/04 A2987 RMK AO2
                 SLP117 60001 T00440039 10056 20044 56019 =
2018-12-16 12:32 METAR KMRB 161732Z 36008KT 10SM BKN011 OVC018 05/04 A2987 RMK AO2 T00500039 =
2018-12-16 11:53 METAR KMRB 161653Z 35009KT 6SM BR OVC008 04/04 A2988 RMK AO2 SLP122 T00440044 =
2018-12-16 11:43 METAR KMRB 161643Z 36010KT 4SM BR OVC006 04/04 A2988 RMK AO2 T00440039 =
2018-12-16 10:53 METAR KMRB 161553Z 01011KT 2SM BR BKN006 OVC010 04/04 A2991 RMK AO2 SLP130
                 T00440044 =
2018-12-16 10:46 METAR KMRB 161546Z 02009KT 2 1/2SM BR BKN006 BKN010 OVC016 05/04 A2991 RMK AO2
                 T00500044 =
2018-12-16 10:26 METAR KMRB 161526Z 36009KT 1 3/4SM BR BKN005 OVC011 05/05 A2992 RMK AO2
                 T00500050 =
2018-12-16 10:13 METAR KMRB 161513Z 36007KT 2SM BR BKN007 BKN011 OVC020 05/05 A2992 RMK AO2
                 T00500050 =
2018-12-16 09:53 METAR KMRB 161453Z 01008KT 4SM BR BKN007 OVC020 05/04 A2992 RMK AO2 SLP136 60001
                 T00500044 51006 =
2018-12-16 09:30 METAR KMRB 161430Z 01009KT 2SM BR BKN007 OVC010 05/05 A2992 RMK AO2 CIG 004V008
                 T00500050 =
2018-12-16 08:53 METAR KMRB 161353Z 02008KT 4SM BR OVC006 05/05 A2992 RMK AO2 CIG 004V009 SLP134
                 T00500050 =
2018-12-16 08:48 METAR KMRB 161348Z 02008KT 5SM BR OVC006 05/05 A2992 RMK AO2 CIG 004V009 =
2018-12-16 08:36 METAR KMRB 161336Z 01010KT 4SM HZ OVC004 05/ A2992 RMK AO2 CIG 003V007 T0050 $ =
2018-12-16 07:53 METAR KMRB 161253Z 01011KT 2SM BR OVC004 05/ A2991 RMK AO2 RAB02E32 SLP130 P0001
                 T0050 $ =
2018-12-16 07:19 METAR KMRB 161219Z AUTO 01009KT 2 1/2SM -RA OVC004 06/ A2991 RMK AO2 RAB02 P0000
                 T0056 $ =
2018-12-16 06:53 METAR KMRB 161153Z AUTO 36008KT 3SM BR BKN004 OVC009 06/ A2991 RMK AO2 RAE38 CIG
                 003V007 SLP132 P0001 60010 70202 T0056 10067 20056 51005 $ =
2018-12-16 06:38 METAR KMRB 161138Z AUTO 36009KT 3SM BR BKN004 OVC009 06/ A2991 RMK AO2 RAE38 CIG
                 003V007 P0001 T0056 $ =
2018-12-16 05:53 METAR KMRB 161053Z AUTO 36009KT 2 1/2SM -RA OVC004 06/ A2991 RMK AO2 CIG 003V007
                 SLP132 P0002 T0056 $ =
2018-12-16 05:51 METAR KMRB 161051Z AUTO 36009KT 2 1/2SM -RA OVC004 06/ A2991 RMK AO2 P0001 $ =
2018-12-16 05:39 METAR KMRB 161039Z AUTO 36010KT 2 1/2SM -RA OVC005 06/ A2991 RMK AO2 P0001 T0056
                 $ =

Support USWX by starting your Amazon purchase here.